createdAt,value
2019-04-01T00:00:36.573Z,96036.00
2019-04-01T00:03:09.953Z,96038.00
2019-04-01T00:05:41.812Z,96035.00
2019-04-01T00:08:13.499Z,96038.00
2019-04-01T00:10:45.343Z,96030.00
2019-04-01T00:13:17.166Z,96032.00
2019-04-01T00:15:49.269Z,96022.00
2019-04-01T00:18:21.073Z,96030.00
2019-04-01T00:20:53.196Z,96029.00
2019-04-01T00:23:25.033Z,96035.00
2019-04-01T00:25:56.866Z,96031.00
2019-04-01T00:28:28.661Z,96026.00
2019-04-01T00:31:00.835Z,96023.00
2019-04-01T00:33:32.641Z,96034.00
2019-04-01T00:36:04.591Z,96030.00
2019-04-01T00:38:36.407Z,96027.00
2019-04-01T00:41:08.273Z,96029.00
2019-04-01T00:43:59.146Z,96022.00
2019-04-01T00:46:32.411Z,96019.00
2019-04-01T00:49:04.349Z,96021.00
2019-04-01T00:51:36.444Z,96017.00
2019-04-01T00:54:08.261Z,96013.00
2019-04-01T00:56:40.114Z,96006.00
2019-04-01T00:59:12.217Z,96014.00
2019-04-01T01:01:44.060Z,96008.00
2019-04-01T01:04:15.847Z,96005.00
2019-04-01T01:06:47.945Z,95996.00
2019-04-01T01:09:19.766Z,96005.00
2019-04-01T01:11:54.880Z,96002.00
2019-04-01T01:14:26.582Z,95995.00
2019-04-01T01:16:58.439Z,95999.00
2019-04-01T01:19:30.573Z,96010.00
2019-04-01T01:22:02.505Z,95997.00
2019-04-01T01:24:34.327Z,95999.00
2019-04-01T01:27:06.257Z,95995.00
2019-04-01T01:29:38.068Z,96006.00
2019-04-01T01:32:10.199Z,96005.00
2019-04-01T01:34:42.015Z,96008.00
2019-04-01T01:37:13.872Z,96002.00
2019-04-01T01:39:46.432Z,95997.00
2019-04-01T01:42:18.349Z,95995.00
2019-04-01T01:44:50.164Z,95997.00
2019-04-01T01:47:22.021Z,95998.00
2019-04-01T01:49:54.152Z,95994.00
2019-04-01T01:52:26.286Z,95986.00
2019-04-01T01:54:58.105Z,95995.00
2019-04-01T01:57:30.015Z,95998.00
2019-04-01T02:00:01.829Z,95990.00
2019-04-01T02:07:49.979Z,95994.00
2019-04-01T02:10:22.048Z,95988.00
2019-04-01T02:12:53.887Z,95993.00
2019-04-01T02:15:26.419Z,95989.00
2019-04-01T02:17:58.316Z,95984.00
2019-04-01T02:20:30.133Z,95988.00
2019-04-01T02:23:02.264Z,95987.00
2019-04-01T02:25:34.080Z,95993.00
2019-04-01T02:28:06.215Z,95981.00
2019-04-01T02:30:38.025Z,95983.00
2019-04-01T02:33:09.866Z,95995.00
2019-04-01T02:35:41.690Z,95981.00
2019-04-01T02:38:13.550Z,95990.00
2019-04-01T02:40:45.388Z,95986.00
2019-04-01T02:43:17.339Z,95918.00
2019-04-01T02:45:49.137Z,96012.00
2019-04-01T02:48:21.236Z,95982.00
2019-04-01T02:50:53.028Z,95992.00
2019-04-01T02:53:24.871Z,95979.00
2019-04-01T02:55:56.712Z,95975.00
2019-04-01T02:58:28.554Z,95980.00
2019-04-01T03:01:00.364Z,95985.00
2019-04-01T03:03:32.677Z,95988.00
2019-04-01T03:06:04.797Z,95975.00
2019-04-01T03:08:37.039Z,95970.00
2019-04-01T03:11:10.777Z,95978.00
2019-04-01T03:13:42.986Z,95973.00
2019-04-01T03:16:14.776Z,95974.00
2019-04-01T03:18:46.620Z,95970.00
2019-04-01T03:21:18.439Z,95975.00
2019-04-01T03:23:50.312Z,95970.00
2019-04-01T03:26:22.168Z,95980.00
2019-04-01T03:28:54.032Z,95965.00
2019-04-01T03:31:26.002Z,95958.00
2019-04-01T03:33:57.905Z,95967.00
2019-04-01T03:36:29.707Z,95970.00
2019-04-01T03:39:01.565Z,95967.00
2019-04-01T03:41:33.764Z,95972.00
2019-04-01T03:44:05.651Z,95973.00
2019-04-01T03:46:37.570Z,95973.00
2019-04-01T03:49:09.414Z,95974.00
2019-04-01T03:51:41.204Z,95962.00
2019-04-01T03:54:13.346Z,95960.00
2019-04-01T03:56:45.155Z,95970.00
2019-04-01T03:59:17.010Z,95958.00
2019-04-01T04:01:48.817Z,95971.00
2019-04-01T04:04:20.961Z,95972.00
2019-04-01T04:06:52.771Z,95966.00
2019-04-01T04:09:24.779Z,95971.00
2019-04-01T04:11:56.871Z,95970.00
2019-04-01T04:14:28.854Z,95967.00
2019-04-01T04:17:00.954Z,95974.00
2019-04-01T04:19:32.797Z,95977.00
2019-04-01T04:22:04.905Z,95971.00
2019-04-01T04:24:37.302Z,95971.00
2019-04-01T04:27:11.390Z,95976.00
2019-04-01T04:29:42.949Z,95977.00
2019-04-01T04:32:14.771Z,95967.00
2019-04-01T04:34:47.782Z,95974.00
2019-04-01T04:37:19.601Z,95984.00
2019-04-01T04:39:51.451Z,95983.00
2019-04-01T04:42:23.269Z,95988.00
2019-04-01T04:44:55.673Z,95986.00
2019-04-01T04:47:27.921Z,95990.00
2019-04-01T04:49:59.774Z,95987.00
2019-04-01T04:52:31.601Z,95983.00
2019-04-01T04:55:03.416Z,95995.00
2019-04-01T04:57:35.662Z,95986.00
2019-04-01T05:00:07.736Z,95999.00
2019-04-01T05:02:39.648Z,95994.00
2019-04-01T05:05:11.435Z,95994.00
2019-04-01T05:07:43.287Z,96002.00
2019-04-01T05:10:15.593Z,96004.00
2019-04-01T05:12:50.408Z,95999.00
2019-04-01T05:15:21.351Z,96003.00
2019-04-01T05:17:53.318Z,96002.00
2019-04-01T05:20:25.426Z,96005.00
2019-04-01T05:22:57.616Z,96006.00
2019-04-01T05:25:31.924Z,95998.00
2019-04-01T05:28:04.292Z,96004.00
2019-04-01T05:30:38.658Z,95997.00
2019-04-01T05:33:12.147Z,95995.00
2019-04-01T05:35:44.222Z,96003.00
2019-04-01T05:38:16.369Z,95998.00
2019-04-01T05:40:48.561Z,96000.00
2019-04-01T05:43:20.686Z,96008.00
2019-04-01T05:45:53.016Z,96003.00
2019-04-01T05:48:29.502Z,96009.00
2019-04-01T05:51:01.320Z,96007.00
2019-04-01T05:53:33.268Z,96001.00
2019-04-01T05:56:05.169Z,96005.00
2019-04-01T05:58:37.299Z,96013.00
2019-04-01T06:01:13.258Z,96020.00
2019-04-01T06:03:45.461Z,96020.00
2019-04-01T06:06:17.320Z,96014.00
2019-04-01T06:08:49.671Z,96013.00
2019-04-01T06:11:21.494Z,96014.00
2019-04-01T06:13:53.294Z,96012.00
2019-04-01T06:16:25.553Z,96022.00
2019-04-01T06:18:58.256Z,96018.00
2019-04-01T06:21:31.020Z,96013.00
2019-04-01T06:24:02.885Z,96019.00
2019-04-01T06:26:35.048Z,96021.00
2019-04-01T06:29:06.849Z,96006.00
2019-04-01T06:31:39.103Z,96009.00
2019-04-01T06:34:10.910Z,96012.00
2019-04-01T06:36:43.103Z,96016.00
2019-04-01T06:39:14.913Z,96012.00
2019-04-01T06:41:47.259Z,96008.00
2019-04-01T06:44:19.410Z,96010.00
2019-04-01T06:46:52.003Z,96000.00
2019-04-01T06:49:24.424Z,96008.00
2019-04-01T06:51:57.321Z,96006.00
2019-04-01T06:54:29.441Z,96011.00
2019-04-01T06:57:01.385Z,96008.00
2019-04-01T06:59:33.459Z,96006.00
2019-04-01T07:02:05.448Z,96003.00
2019-04-01T07:04:37.769Z,96002.00
2019-04-01T07:07:18.800Z,96000.00
2019-04-01T07:09:43.267Z,96002.00
2019-04-01T07:12:15.131Z,95994.00
2019-04-01T07:14:46.938Z,95984.00
2019-04-01T07:17:18.818Z,95984.00
2019-04-01T07:19:50.638Z,95988.00
2019-04-01T07:22:23.030Z,95990.00
2019-04-01T07:24:55.170Z,95984.00
2019-04-01T07:27:27.042Z,95993.00
2019-04-01T07:29:59.056Z,95992.00
2019-04-01T07:32:31.214Z,95981.00
2019-04-01T07:35:03.768Z,95988.00
2019-04-01T07:37:36.359Z,95990.00
2019-04-01T07:40:08.793Z,95992.00
2019-04-01T07:42:40.987Z,95988.00
2019-04-01T07:45:12.894Z,95979.00
2019-04-01T07:47:45.332Z,95987.00
2019-04-01T07:50:17.684Z,95977.00
2019-04-01T07:52:50.084Z,95989.00
2019-04-01T07:55:21.897Z,95986.00
2019-04-01T07:57:53.948Z,95985.00
2019-04-01T08:00:26.027Z,95986.00
2019-04-01T08:02:58.239Z,95979.00
2019-04-01T08:05:30.692Z,95984.00
2019-04-01T08:08:03.221Z,95972.00
2019-04-01T08:10:35.164Z,95980.00
2019-04-01T08:13:07.577Z,95971.00
2019-04-01T08:15:39.681Z,95974.00
2019-04-01T08:18:11.807Z,95973.00
2019-04-01T08:20:43.892Z,95975.00
2019-04-01T08:23:15.734Z,95975.00
2019-04-01T08:25:48.039Z,95967.00
2019-04-01T08:28:23.539Z,95962.00
2019-04-01T08:30:53.673Z,95963.00
2019-04-01T08:33:26.104Z,95955.00
2019-04-01T08:35:57.915Z,95959.00
2019-04-01T08:38:29.807Z,95962.00
2019-04-01T08:41:01.991Z,95960.00
2019-04-01T08:43:33.832Z,95953.00
2019-04-01T08:46:06.007Z,95952.00
2019-04-01T08:48:37.882Z,95955.00
2019-04-01T08:51:09.689Z,95952.00
2019-04-01T08:53:41.641Z,95957.00
2019-04-01T08:56:13.724Z,95947.00
2019-04-01T08:58:45.802Z,95947.00
2019-04-01T09:01:17.631Z,95956.00
2019-04-01T09:03:49.534Z,95958.00
2019-04-01T09:06:21.675Z,95951.00
2019-04-01T09:08:54.980Z,95949.00
2019-04-01T09:11:28.701Z,95947.00
2019-04-01T09:14:01.556Z,95949.00
2019-04-01T09:16:34.009Z,95952.00
2019-04-01T09:19:05.844Z,95943.00
2019-04-01T09:21:37.632Z,95937.00
2019-04-01T09:24:09.818Z,95942.00
2019-04-01T09:26:41.624Z,95941.00
2019-04-01T09:29:13.596Z,95938.00
2019-04-01T09:31:45.714Z,95937.00
2019-04-01T09:34:17.553Z,95931.00
2019-04-01T09:36:49.632Z,95924.00
2019-04-01T09:39:21.798Z,95927.00
2019-04-01T09:41:53.593Z,95933.00
2019-04-01T09:44:36.066Z,95921.00
2019-04-01T09:46:58.999Z,95920.00
2019-04-01T09:49:30.846Z,95920.00
2019-04-01T09:52:03.965Z,95916.00
2019-04-01T09:54:35.929Z,95906.00
2019-04-01T09:57:17.229Z,95900.00
2019-04-01T09:59:41.322Z,95916.00
2019-04-01T10:02:13.118Z,95911.00
2019-04-01T10:04:44.957Z,95909.00
2019-04-01T10:07:17.158Z,95906.00
2019-04-01T10:09:49.122Z,95903.00
2019-04-01T10:12:20.921Z,95895.00
2019-04-01T10:14:52.777Z,95902.00
2019-04-01T10:17:24.570Z,95901.00
2019-04-01T10:19:56.422Z,95895.00
2019-04-01T10:22:28.868Z,95901.00
2019-04-01T10:25:01.010Z,95894.00
2019-04-01T10:27:32.805Z,95886.00
2019-04-01T10:30:06.062Z,95889.00
2019-04-01T10:32:41.188Z,95887.00
2019-04-01T10:35:13.229Z,95882.00
2019-04-01T10:37:45.415Z,95886.00
2019-04-01T10:40:17.341Z,95880.00
2019-04-01T10:42:49.134Z,95874.00
2019-04-01T10:45:22.455Z,95874.00
2019-04-01T10:47:54.253Z,95877.00
2019-04-01T10:50:26.650Z,95879.00
2019-04-01T10:52:58.514Z,95881.00
2019-04-01T10:55:30.696Z,95868.00
2019-04-01T10:58:02.597Z,95874.00
2019-04-01T11:00:34.696Z,95877.00
2019-04-01T11:03:06.540Z,95868.00
2019-04-01T11:05:38.387Z,95867.00
2019-04-01T11:08:10.209Z,95862.00
2019-04-01T11:10:42.297Z,95855.00
2019-04-01T11:13:14.437Z,95861.00
2019-04-01T11:15:46.597Z,95844.00
2019-04-01T11:18:18.778Z,95846.00
2019-04-01T11:20:50.573Z,95850.00
2019-04-01T11:23:22.828Z,95847.00
2019-04-01T11:25:54.637Z,95851.00
2019-04-01T11:28:26.850Z,95844.00
2019-04-01T11:31:01.600Z,95836.00
2019-04-01T11:33:33.697Z,95848.00
2019-04-01T11:36:05.662Z,95847.00
2019-04-01T11:38:37.924Z,95833.00
2019-04-01T11:41:09.775Z,95831.00
2019-04-01T11:43:41.650Z,95833.00
2019-04-01T11:46:13.469Z,95831.00
2019-04-01T11:48:45.307Z,95823.00
2019-04-01T11:51:31.512Z,95833.00
2019-04-01T11:53:51.161Z,95824.00
2019-04-01T11:56:26.413Z,95820.00
2019-04-01T11:58:57.033Z,95814.00
2019-04-01T12:01:29.098Z,95818.00
2019-04-01T12:04:00.905Z,95811.00
2019-04-01T12:06:32.806Z,95809.00
2019-04-01T12:09:06.572Z,95811.00
2019-04-01T12:11:38.396Z,95801.00
2019-04-01T12:14:10.192Z,95809.00
2019-04-01T12:16:42.362Z,95799.00
2019-04-01T12:19:14.150Z,95796.00
2019-04-01T12:21:46.527Z,95789.00
2019-04-01T12:24:18.407Z,95782.00
2019-04-01T12:26:50.242Z,95785.00
2019-04-01T12:29:22.758Z,95782.00
2019-04-01T12:31:59.468Z,95778.00
2019-04-01T12:34:28.529Z,95783.00
2019-04-01T12:37:00.395Z,95771.00
2019-04-01T12:39:32.206Z,95776.00
2019-04-01T12:42:04.071Z,95774.00
2019-04-01T12:44:36.450Z,95771.00
2019-04-01T12:47:08.403Z,95775.00
2019-04-01T12:49:40.235Z,95771.00
2019-04-01T12:52:12.320Z,95778.00
2019-04-01T12:54:44.713Z,95770.00
2019-04-01T12:57:18.715Z,95758.00
2019-04-01T12:59:50.252Z,95758.00
2019-04-01T13:02:22.101Z,95748.00
2019-04-01T13:04:53.972Z,95754.00
2019-04-01T13:07:25.780Z,95749.00
2019-04-01T13:09:57.611Z,95747.00
2019-04-01T13:12:29.720Z,95746.00
2019-04-01T13:15:01.879Z,95699.00
2019-04-01T13:17:34.036Z,95740.00
2019-04-01T13:20:06.722Z,95725.00
2019-04-01T13:22:38.558Z,95729.00
2019-04-01T13:25:10.403Z,95735.00
2019-04-01T13:27:42.555Z,95735.00
2019-04-01T13:30:14.393Z,95719.00
2019-04-01T13:32:46.199Z,95700.00
2019-04-01T13:35:18.391Z,95711.00
2019-04-01T13:37:50.554Z,95714.00
2019-04-01T13:40:22.692Z,95719.00
2019-04-01T13:42:54.529Z,95714.00
2019-04-01T13:45:31.384Z,95706.00
2019-04-01T13:48:00.192Z,95704.00
2019-04-01T13:50:32.665Z,95698.00
2019-04-01T13:53:04.852Z,95701.00
2019-04-01T13:55:38.140Z,95684.00
2019-04-01T13:58:11.020Z,95682.00
2019-04-01T14:00:43.157Z,95685.00
2019-04-01T14:03:15.006Z,95670.00
2019-04-01T14:05:47.142Z,95668.00
2019-04-01T14:08:19.269Z,95683.00
2019-04-01T14:10:51.448Z,95670.00
2019-04-01T14:13:23.660Z,95671.00
2019-04-01T14:15:55.757Z,95664.00
2019-04-01T14:18:28.132Z,95664.00
2019-04-01T14:21:14.858Z,95665.00
2019-04-01T14:23:33.465Z,95660.00
2019-04-01T14:26:05.260Z,95657.00
2019-04-01T14:28:38.215Z,95662.00
2019-04-01T14:31:10.381Z,95654.00
2019-04-01T14:33:42.442Z,95656.00
2019-04-01T14:36:14.284Z,95652.00
2019-04-01T14:38:46.265Z,95664.00
2019-04-01T14:41:18.095Z,95660.00
2019-04-01T14:43:50.249Z,95663.00
2019-04-01T14:46:22.052Z,95658.00
2019-04-01T14:48:54.258Z,95651.00
2019-04-01T14:51:26.060Z,95647.00
2019-04-01T14:53:57.931Z,95647.00
2019-04-01T14:56:30.046Z,95663.00
2019-04-01T14:59:02.280Z,95657.00
2019-04-01T15:01:34.092Z,95656.00
2019-04-01T15:04:06.777Z,95648.00
2019-04-01T15:06:38.874Z,95638.00
2019-04-01T15:09:11.081Z,95644.00
2019-04-01T15:11:42.919Z,95639.00
2019-04-01T15:14:14.737Z,95647.00
2019-04-01T15:16:46.823Z,95640.00
2019-04-01T15:19:18.659Z,95639.00
2019-04-01T15:21:51.152Z,95631.00
2019-04-01T15:24:24.324Z,95644.00
2019-04-01T15:26:56.137Z,95642.00
2019-04-01T15:29:29.102Z,95646.00
2019-04-01T15:32:01.633Z,95637.00
2019-04-01T15:34:33.731Z,95645.00
2019-04-01T15:37:05.529Z,95644.00
2019-04-01T15:39:37.637Z,95636.00
2019-04-01T15:42:09.463Z,95639.00
2019-04-01T15:44:42.113Z,95640.00
2019-04-01T15:47:14.157Z,95637.00
2019-04-01T15:49:46.906Z,95635.00
2019-04-01T15:52:19.262Z,95636.00
2019-04-01T15:54:51.132Z,95627.00
2019-04-01T15:57:22.989Z,95631.00
2019-04-01T15:59:55.354Z,95622.00
2019-04-01T16:02:27.483Z,95619.00
2019-04-01T16:04:59.590Z,95631.00
2019-04-01T16:07:31.909Z,95623.00
2019-04-01T16:10:03.804Z,95626.00
2019-04-01T16:12:35.649Z,95620.00
2019-04-01T16:15:09.061Z,95616.00
2019-04-01T16:17:41.131Z,95625.00
2019-04-01T16:20:13.244Z,95619.00
2019-04-01T16:22:45.579Z,95612.00
2019-04-01T16:25:17.386Z,95615.00
2019-04-01T16:27:49.255Z,95609.00
2019-04-01T16:30:21.098Z,95611.00
2019-04-01T16:32:53.268Z,95605.00
2019-04-01T16:35:25.183Z,95611.00
2019-04-01T16:37:59.334Z,95611.00
2019-04-01T16:40:30.563Z,95613.00
2019-04-01T16:43:03.010Z,95609.00
2019-04-01T16:45:34.844Z,95613.00
2019-04-01T16:48:06.685Z,95614.00
2019-04-01T16:50:38.491Z,95609.00
2019-04-01T16:53:10.342Z,95609.00
2019-04-01T16:55:42.574Z,95605.00
2019-04-01T16:58:14.746Z,95609.00
2019-04-01T17:00:46.929Z,95607.00
2019-04-01T17:03:19.572Z,95616.00
2019-04-01T17:05:52.160Z,95607.00
2019-04-01T17:08:24.045Z,95603.00
2019-04-01T17:10:57.691Z,95609.00
2019-04-01T17:13:29.675Z,95616.00
2019-04-01T17:16:01.847Z,95615.00
2019-04-01T17:18:34.185Z,95610.00
2019-04-01T17:21:06.101Z,95620.00
2019-04-01T17:23:41.691Z,95619.00
2019-04-01T17:26:11.866Z,95612.00
2019-04-01T17:28:44.605Z,95617.00
2019-04-01T17:31:16.405Z,95620.00
2019-04-01T17:33:48.239Z,95622.00
2019-04-01T17:36:20.033Z,95615.00
2019-04-01T17:38:51.888Z,95618.00
2019-04-01T17:41:23.998Z,95614.00
2019-04-01T17:43:55.830Z,95623.00
2019-04-01T17:46:28.337Z,95620.00
2019-04-01T17:49:00.198Z,95620.00
2019-04-01T17:51:32.274Z,95621.00
2019-04-01T17:54:04.255Z,95627.00
2019-04-01T17:56:36.064Z,95633.00
2019-04-01T17:59:07.954Z,95629.00
2019-04-01T18:01:39.765Z,95629.00
2019-04-01T18:04:12.166Z,95625.00
2019-04-01T18:06:44.272Z,95626.00
2019-04-01T18:09:16.595Z,95623.00
2019-04-01T18:11:48.415Z,95638.00
2019-04-01T18:14:21.071Z,95632.00
2019-04-01T18:16:52.915Z,95642.00
2019-04-01T18:19:25.057Z,95632.00
2019-04-01T18:21:56.862Z,95633.00
2019-04-01T18:24:28.697Z,95638.00
2019-04-01T18:27:00.514Z,95631.00
2019-04-01T18:29:32.376Z,95644.00
2019-04-01T18:32:04.443Z,95638.00
2019-04-01T18:34:36.304Z,95644.00
2019-04-01T18:37:08.101Z,95640.00
2019-04-01T18:39:48.154Z,95642.00
2019-04-01T18:42:13.451Z,95654.00
2019-04-01T18:44:45.304Z,95656.00
2019-04-01T18:47:18.341Z,95657.00
2019-04-01T18:49:50.466Z,95655.00
2019-04-01T18:52:22.568Z,95654.00
2019-04-01T18:54:54.423Z,95656.00
2019-04-01T18:57:27.314Z,95662.00
2019-04-01T18:59:59.602Z,95657.00
2019-04-01T19:02:31.753Z,95680.00
2019-04-01T19:05:03.705Z,95657.00
2019-04-01T19:07:35.835Z,95669.00
2019-04-01T19:10:08.076Z,95664.00
2019-04-01T19:12:40.354Z,95664.00
2019-04-01T19:15:12.440Z,95662.00
2019-04-01T19:17:44.580Z,95675.00
2019-04-01T19:20:16.806Z,95663.00
2019-04-01T19:22:48.656Z,95666.00
2019-04-01T19:25:23.047Z,95674.00
2019-04-01T19:27:54.531Z,95663.00
2019-04-01T19:30:26.365Z,95659.00
2019-04-01T19:32:58.254Z,95673.00
2019-04-01T19:35:30.722Z,95680.00
2019-04-01T19:38:02.871Z,95676.00
2019-04-01T19:40:34.680Z,95683.00
2019-04-01T19:43:06.818Z,95679.00
2019-04-01T19:45:40.001Z,95674.00
2019-04-01T19:48:13.062Z,95678.00
2019-04-01T19:50:44.878Z,95673.00
2019-04-01T19:53:16.725Z,95677.00
2019-04-01T19:55:48.555Z,95662.00
2019-04-01T19:58:20.794Z,95665.00
2019-04-01T20:00:52.641Z,95682.00
2019-04-01T20:03:25.542Z,95677.00
2019-04-01T20:05:57.841Z,95674.00
2019-04-01T20:08:29.993Z,95676.00
2019-04-01T20:11:02.368Z,95667.00
2019-04-01T20:13:34.600Z,95678.00
2019-04-01T20:16:06.588Z,95674.00
2019-04-01T20:18:38.398Z,95676.00
2019-04-01T20:21:10.828Z,95663.00
2019-04-01T20:23:42.636Z,95666.00
2019-04-01T20:26:14.549Z,95672.00
2019-04-01T20:28:46.379Z,95657.00
2019-04-01T20:31:18.231Z,95665.00
2019-04-01T20:33:50.745Z,95661.00
2019-04-01T20:36:28.349Z,95657.00
2019-04-01T20:38:56.354Z,95655.00
2019-04-01T20:41:28.216Z,95659.00
2019-04-01T20:44:00.036Z,95656.00
2019-04-01T20:46:31.862Z,95659.00
2019-04-01T20:49:04.839Z,95657.00
2019-04-01T20:51:36.854Z,95655.00
2019-04-01T20:54:09.016Z,95661.00
2019-04-01T20:56:41.192Z,95659.00
2019-04-01T20:59:13.656Z,95657.00
2019-04-01T21:01:45.919Z,95649.00
2019-04-01T21:04:18.486Z,95650.00
2019-04-01T21:06:50.491Z,95647.00
2019-04-01T21:09:22.277Z,95648.00
2019-04-01T21:11:54.491Z,95634.00
2019-04-01T21:14:26.362Z,95636.00
2019-04-01T21:17:00.067Z,95640.00
2019-04-01T21:19:31.903Z,95638.00
2019-04-01T21:22:04.055Z,95644.00
2019-04-01T21:24:36.702Z,95628.00
2019-04-01T21:27:09.175Z,95622.00
2019-04-01T21:29:41.409Z,95624.00
2019-04-01T21:32:13.937Z,95633.00
2019-04-01T21:34:45.959Z,95624.00
2019-04-01T21:37:18.127Z,95631.00
2019-04-01T21:39:50.050Z,95632.00
2019-04-01T21:42:22.548Z,95628.00
2019-04-01T21:44:54.988Z,95619.00
2019-04-01T21:47:27.140Z,95624.00
2019-04-01T21:49:58.982Z,95622.00
2019-04-01T21:52:31.118Z,95627.00
2019-04-01T21:55:03.267Z,95614.00
2019-04-01T21:57:35.270Z,95610.00
2019-04-01T22:00:09.008Z,95609.00
2019-04-01T22:02:40.971Z,95619.00
2019-04-01T22:05:12.780Z,95623.00
2019-04-01T22:07:44.629Z,95617.00
2019-04-01T22:10:16.550Z,95618.00
2019-04-01T22:12:48.393Z,95621.00
2019-04-01T22:15:21.144Z,95611.00
2019-04-01T22:17:53.751Z,95610.00
2019-04-01T22:20:25.551Z,95616.00
2019-04-01T22:22:57.678Z,95607.00
2019-04-01T22:25:30.059Z,95601.00
2019-04-01T22:28:02.344Z,95605.00
2019-04-01T22:30:34.142Z,95607.00
2019-04-01T22:33:06.021Z,95611.00
2019-04-01T22:35:39.173Z,95601.00
2019-04-01T22:38:11.681Z,95605.00
2019-04-01T22:40:43.497Z,95606.00
2019-04-01T22:43:15.611Z,95602.00
2019-04-01T22:45:49.118Z,95598.00
2019-04-01T22:48:21.447Z,95588.00
2019-04-01T22:50:53.248Z,95595.00
2019-04-01T22:53:25.378Z,95600.00
2019-04-01T22:55:57.264Z,95601.00
2019-04-01T22:58:29.390Z,95596.00
2019-04-01T23:01:01.199Z,95602.00
2019-04-01T23:03:33.061Z,95597.00
2019-04-01T23:06:05.235Z,95586.00
2019-04-01T23:08:38.113Z,95586.00
2019-04-01T23:11:09.914Z,95591.00
2019-04-01T23:13:42.040Z,95581.00
2019-04-01T23:16:13.858Z,95588.00
2019-04-01T23:18:45.723Z,95579.00
2019-04-01T23:21:17.521Z,95583.00
2019-04-01T23:23:49.380Z,95581.00
2019-04-01T23:26:21.302Z,95576.00
2019-04-01T23:28:53.714Z,95575.00
2019-04-01T23:31:25.837Z,95571.00
2019-04-01T23:33:57.724Z,95574.00
2019-04-01T23:36:29.529Z,95570.00
2019-04-01T23:39:01.399Z,95566.00
2019-04-01T23:41:33.205Z,95565.00
2019-04-01T23:44:05.048Z,95573.00
2019-04-01T23:46:36.897Z,95570.00
2019-04-01T23:49:09.003Z,95566.00
2019-04-01T23:51:41.129Z,95568.00
2019-04-01T23:54:13.277Z,95564.00
2019-04-01T23:56:45.077Z,95567.00
2019-04-01T23:59:16.929Z,95557.00
